sensor_id;sensor_type;location;lat;lon;timestamp;pressure;altitude;pressure_sealevel;temperature;humidity
59443;BME280;45247;47.466;19.004;2023-05-07T00:02:00;99889.75;;;13.02;100.00
59443;BME280;45247;47.466;19.004;2023-05-07T00:04:28;99898.53;;;13.02;100.00
59443;BME280;45247;47.466;19.004;2023-05-07T00:07:02;99901.28;;;13.01;100.00
59443;BME280;45247;47.466;19.004;2023-05-07T00:09:30;99893.44;;;12.99;100.00
59443;BME280;45247;47.466;19.004;2023-05-07T00:11:58;99901.59;;;12.96;100.00
59443;BME280;45247;47.466;19.004;2023-05-07T00:14:28;99900.88;;;12.94;100.00
59443;BME280;45247;47.466;19.004;2023-05-07T00:16:56;99897.69;;;12.89;100.00
59443;BME280;45247;47.466;19.004;2023-05-07T00:19:25;99902.44;;;12.84;100.00
59443;BME280;45247;47.466;19.004;2023-05-07T00:21:53;99899.19;;;12.81;100.00
59443;BME280;45247;47.466;19.004;2023-05-07T00:24:22;99901.91;;;12.79;100.00
59443;BME280;45247;47.466;19.004;2023-05-07T00:26:50;99900.22;;;12.78;100.00
59443;BME280;45247;47.466;19.004;2023-05-07T00:29:19;99898.53;;;12.77;100.00
59443;BME280;45247;47.466;19.004;2023-05-07T00:31:50;99905.53;;;12.78;100.00
59443;BME280;45247;47.466;19.004;2023-05-07T00:34:20;99900.94;;;12.80;100.00
59443;BME280;45247;47.466;19.004;2023-05-07T00:36:49;99905.19;;;12.83;100.00
59443;BME280;45247;47.466;19.004;2023-05-07T00:39:17;99907.13;;;12.81;100.00
59443;BME280;45247;47.466;19.004;2023-05-07T00:41:45;99904.88;;;12.74;100.00
59443;BME280;45247;47.466;19.004;2023-05-07T00:44:14;99905.31;;;12.68;100.00
59443;BME280;45247;47.466;19.004;2023-05-07T00:46:42;99905.63;;;12.64;100.00
59443;BME280;45247;47.466;19.004;2023-05-07T00:49:12;99901.69;;;12.57;100.00
59443;BME280;45247;47.466;19.004;2023-05-07T00:51:41;99900.41;;;12.49;100.00
59443;BME280;45247;47.466;19.004;2023-05-07T00:54:09;99920.09;;;12.45;100.00
59443;BME280;45247;47.466;19.004;2023-05-07T00:56:38;99909.91;;;12.39;100.00
59443;BME280;45247;47.466;19.004;2023-05-07T00:59:06;99909.72;;;12.42;100.00
59443;BME280;45247;47.466;19.004;2023-05-07T01:01:35;99907.91;;;12.43;100.00
59443;BME280;45247;47.466;19.004;2023-05-07T01:04:03;99908.75;;;12.43;100.00
59443;BME280;45247;47.466;19.004;2023-05-07T01:06:33;99918.41;;;12.44;100.00
59443;BME280;45247;47.466;19.004;2023-05-07T01:09:03;99914.38;;;12.39;100.00
59443;BME280;45247;47.466;19.004;2023-05-07T01:11:32;99910.66;;;12.41;100.00
59443;BME280;45247;47.466;19.004;2023-05-07T01:14:00;99910.66;;;12.41;100.00
59443;BME280;45247;47.466;19.004;2023-05-07T01:16:29;99912.56;;;12.39;100.00
59443;BME280;45247;47.466;19.004;2023-05-07T01:18:57;99915.84;;;12.43;100.00
59443;BME280;45247;47.466;19.004;2023-05-07T01:21:26;99918.06;;;12.36;100.00
59443;BME280;45247;47.466;19.004;2023-05-07T01:23:56;99922.63;;;12.34;100.00
59443;BME280;45247;47.466;19.004;2023-05-07T01:26:25;99914.53;;;12.23;100.00
59443;BME280;45247;47.466;19.004;2023-05-07T01:28:53;99923.63;;;12.19;100.00
59443;BME280;45247;47.466;19.004;2023-05-07T01:31:22;99925.91;;;12.11;100.00
59443;BME280;45247;47.466;19.004;2023-05-07T01:33:52;99916.69;;;12.03;100.00
59443;BME280;45247;47.466;19.004;2023-05-07T01:36:21;99922.25;;;11.99;100.00
59443;BME280;45247;47.466;19.004;2023-05-07T01:38:52;99923.97;;;12.00;100.00
59443;BME280;45247;47.466;19.004;2023-05-07T01:41:22;99920.06;;;12.06;100.00
59443;BME280;45247;47.466;19.004;2023-05-07T01:43:52;99923.50;;;12.08;100.00
59443;BME280;45247;47.466;19.004;2023-05-07T01:46:20;99922.53;;;12.09;100.00
59443;BME280;45247;47.466;19.004;2023-05-07T01:48:49;99915.56;;;12.08;100.00
59443;BME280;45247;47.466;19.004;2023-05-07T01:51:19;99919.97;;;12.07;100.00
59443;BME280;45247;47.466;19.004;2023-05-07T01:53:48;99922.63;;;12.07;100.00
59443;BME280;45247;47.466;19.004;2023-05-07T01:56:18;99909.63;;;12.04;100.00
59443;BME280;45247;47.466;19.004;2023-05-07T01:58:48;99909.25;;;11.96;100.00
59443;BME280;45247;47.466;19.004;2023-05-07T02:01:17;99903.50;;;11.89;100.00
59443;BME280;45247;47.466;19.004;2023-05-07T02:03:46;99908.50;;;11.79;100.00
59443;BME280;45247;47.466;19.004;2023-05-07T02:06:14;99903.81;;;11.70;100.00
59443;BME280;45247;47.466;19.004;2023-05-07T02:08:43;99897.34;;;11.62;100.00
59443;BME280;45247;47.466;19.004;2023-05-07T02:11:11;99907.72;;;11.50;100.00
59443;BME280;45247;47.466;19.004;2023-05-07T02:13:39;99903.41;;;11.49;100.00
59443;BME280;45247;47.466;19.004;2023-05-07T02:16:08;99906.50;;;11.42;100.00
59443;BME280;45247;47.466;19.004;2023-05-07T02:18:37;99905.13;;;11.36;100.00
59443;BME280;45247;47.466;19.004;2023-05-07T02:21:05;99908.88;;;11.32;100.00
59443;BME280;45247;47.466;19.004;2023-05-07T02:23:33;99889.47;;;11.19;100.00
59443;BME280;45247;47.466;19.004;2023-05-07T02:26:04;99900.22;;;11.16;100.00
59443;BME280;45247;47.466;19.004;2023-05-07T02:28:32;99900.41;;;11.13;100.00
59443;BME280;45247;47.466;19.004;2023-05-07T02:31:02;99896.47;;;11.06;100.00
59443;BME280;45247;47.466;19.004;2023-05-07T02:33:32;99891.34;;;11.02;100.00
59443;BME280;45247;47.466;19.004;2023-05-07T02:36:08;99888.44;;;11.07;100.00
59443;BME280;45247;47.466;19.004;2023-05-07T02:38:36;99889.66;;;11.16;100.00
59443;BME280;45247;47.466;19.004;2023-05-07T02:41:04;99889.47;;;11.19;100.00
59443;BME280;45247;47.466;19.004;2023-05-07T02:43:32;99887.19;;;11.27;100.00
59443;BME280;45247;47.466;19.004;2023-05-07T02:46:02;99897.84;;;11.25;100.00
59443;BME280;45247;47.466;19.004;2023-05-07T02:48:32;99888.34;;;11.23;100.00
59443;BME280;45247;47.466;19.004;2023-05-07T02:51:00;99898.97;;;11.21;100.00
59443;BME280;45247;47.466;19.004;2023-05-07T02:53:28;99897.56;;;11.16;100.00
59443;BME280;45247;47.466;19.004;2023-05-07T02:55:58;99902.28;;;11.11;100.00
59443;BME280;45247;47.466;19.004;2023-05-07T02:58:26;99900.78;;;11.07;100.00
59443;BME280;45247;47.466;19.004;2023-05-07T03:00:54;99896.25;;;11.09;100.00
59443;BME280;45247;47.466;19.004;2023-05-07T03:03:23;99898.88;;;11.09;100.00
59443;BME280;45247;47.466;19.004;2023-05-07T03:05:52;99898.72;;;11.12;100.00
59443;BME280;45247;47.466;19.004;2023-05-07T03:08:20;99896.16;;;11.10;100.00
59443;BME280;45247;47.466;19.004;2023-05-07T03:10:48;99895.97;;;11.13;100.00
59443;BME280;45247;47.466;19.004;2023-05-07T03:13:16;99897.38;;;11.19;100.00
59443;BME280;45247;47.466;19.004;2023-05-07T03:15:45;99904.19;;;11.23;100.00
59443;BME280;45247;47.466;19.004;2023-05-07T03:18:13;99894.19;;;11.28;100.00
59443;BME280;45247;47.466;19.004;2023-05-07T03:20:41;99902.47;;;11.36;100.00
59443;BME280;45247;47.466;19.004;2023-05-07T03:23:11;99895.75;;;11.45;100.00
59443;BME280;45247;47.466;19.004;2023-05-07T03:25:39;99891.88;;;11.50;100.00
59443;BME280;45247;47.466;19.004;2023-05-07T03:28:07;99899.63;;;11.53;100.00
59443;BME280;45247;47.466;19.004;2023-05-07T03:30:35;99895.28;;;11.52;100.00
59443;BME280;45247;47.466;19.004;2023-05-07T03:33:03;99892.22;;;11.59;100.00
59443;BME280;45247;47.466;19.004;2023-05-07T03:35:31;99894.47;;;11.65;100.00
59443;BME280;45247;47.466;19.004;2023-05-07T03:38:00;99895.91;;;11.70;100.00
59443;BME280;45247;47.466;19.004;2023-05-07T03:40:29;99899.75;;;11.65;100.00
59443;BME280;45247;47.466;19.004;2023-05-07T03:42:57;99899.97;;;11.62;100.00
59443;BME280;45247;47.466;19.004;2023-05-07T03:45:27;99899.06;;;11.48;100.00
59443;BME280;45247;47.466;19.004;2023-05-07T03:47:55;99900.56;;;11.38;100.00
59443;BME280;45247;47.466;19.004;2023-05-07T03:50:23;99898.31;;;11.32;100.00
59443;BME280;45247;47.466;19.004;2023-05-07T03:52:51;99906.81;;;11.23;100.00
59443;BME280;45247;47.466;19.004;2023-05-07T03:55:20;99911.63;;;11.16;100.00
59443;BME280;45247;47.466;19.004;2023-05-07T03:57:49;99906.16;;;11.19;100.00
59443;BME280;45247;47.466;19.004;2023-05-07T04:00:17;99908.03;;;11.17;100.00
59443;BME280;45247;47.466;19.004;2023-05-07T04:02:46;99915.50;;;11.25;100.00
59443;BME280;45247;47.466;19.004;2023-05-07T04:05:15;99909.84;;;11.31;100.00
59443;BME280;45247;47.466;19.004;2023-05-07T04:07:43;99904.16;;;11.37;100.00
59443;BME280;45247;47.466;19.004;2023-05-07T04:10:11;99912.34;;;11.47;100.00
59443;BME280;45247;47.466;19.004;2023-05-07T04:12:40;99914.63;;;11.53;100.00
59443;BME280;45247;47.466;19.004;2023-05-07T04:15:10;99916.13;;;11.57;100.00
59443;BME280;45247;47.466;19.004;2023-05-07T04:17:38;99915.06;;;11.74;100.00
59443;BME280;45247;47.466;19.004;2023-05-07T04:20:08;99920.31;;;11.88;100.00
59443;BME280;45247;47.466;19.004;2023-05-07T04:22:37;99923.41;;;12.22;100.00
59443;BME280;45247;47.466;19.004;2023-05-07T04:25:06;99922.81;;;12.31;100.00
59443;BME280;45247;47.466;19.004;2023-05-07T04:27:36;99924.88;;;12.66;100.00
59443;BME280;45247;47.466;19.004;2023-05-07T04:30:05;99939.22;;;13.27;100.00
59443;BME280;45247;47.466;19.004;2023-05-07T04:32:35;99938.88;;;13.44;100.00
59443;BME280;45247;47.466;19.004;2023-05-07T04:35:04;99939.66;;;14.07;100.00
59443;BME280;45247;47.466;19.004;2023-05-07T04:37:32;99937.00;;;14.90;100.00
59443;BME280;45247;47.466;19.004;2023-05-07T04:40:01;99939.50;;;16.15;100.00
59443;BME280;45247;47.466;19.004;2023-05-07T04:42:30;99937.63;;;17.62;100.00
59443;BME280;45247;47.466;19.004;2023-05-07T04:44:58;99935.22;;;19.43;100.00
59443;BME280;45247;47.466;19.004;2023-05-07T04:47:27;99937.03;;;21.05;100.00
59443;BME280;45247;47.466;19.004;2023-05-07T04:49:57;99937.44;;;22.45;86.36
59443;BME280;45247;47.466;19.004;2023-05-07T04:52:25;99925.69;;;23.98;72.33
59443;BME280;45247;47.466;19.004;2023-05-07T04:54:53;99928.59;;;25.04;67.08
59443;BME280;45247;47.466;19.004;2023-05-07T04:57:21;99933.03;;;24.82;66.49
59443;BME280;45247;47.466;19.004;2023-05-07T04:59:49;99927.66;;;24.59;66.30
59443;BME280;45247;47.466;19.004;2023-05-07T05:02:17;99920.63;;;24.72;64.18
59443;BME280;45247;47.466;19.004;2023-05-07T05:04:46;99918.53;;;24.60;67.17
59443;BME280;45247;47.466;19.004;2023-05-07T05:07:16;99925.38;;;26.18;60.57
59443;BME280;45247;47.466;19.004;2023-05-07T05:09:44;99921.88;;;25.73;56.90
59443;BME280;45247;47.466;19.004;2023-05-07T05:12:12;99925.53;;;27.72;53.70
59443;BME280;45247;47.466;19.004;2023-05-07T05:14:40;99921.84;;;28.87;48.00
59443;BME280;45247;47.466;19.004;2023-05-07T05:17:08;99918.84;;;30.00;46.13
59443;BME280;45247;47.466;19.004;2023-05-07T05:19:36;99920.25;;;31.23;42.63
59443;BME280;45247;47.466;19.004;2023-05-07T05:22:04;99921.41;;;28.90;44.49
59443;BME280;45247;47.466;19.004;2023-05-07T05:24:34;99927.66;;;29.96;43.33
59443;BME280;45247;47.466;19.004;2023-05-07T05:27:02;99920.31;;;30.03;42.64
59443;BME280;45247;47.466;19.004;2023-05-07T05:29:30;99925.38;;;30.87;40.91
59443;BME280;45247;47.466;19.004;2023-05-07T05:32:01;99920.38;;;29.83;41.56
59443;BME280;45247;47.466;19.004;2023-05-07T05:34:29;99919.50;;;29.24;43.83
59443;BME280;45247;47.466;19.004;2023-05-07T05:36:59;99914.94;;;28.65;44.28
59443;BME280;45247;47.466;19.004;2023-05-07T05:39:28;99923.56;;;27.53;47.77
59443;BME280;45247;47.466;19.004;2023-05-07T05:41:57;99914.38;;;27.88;48.84
59443;BME280;45247;47.466;19.004;2023-05-07T05:44:25;99915.09;;;29.36;46.24
59443;BME280;45247;47.466;19.004;2023-05-07T05:46:53;99916.25;;;30.50;42.84
59443;BME280;45247;47.466;19.004;2023-05-07T05:49:24;99914.03;;;30.02;43.37
59443;BME280;45247;47.466;19.004;2023-05-07T05:51:52;99912.75;;;30.05;43.69
59443;BME280;45247;47.466;19.004;2023-05-07T05:54:20;99918.06;;;29.86;43.31
59443;BME280;45247;47.466;19.004;2023-05-07T05:56:48;99913.47;;;29.22;44.17
59443;BME280;45247;47.466;19.004;2023-05-07T05:59:18;99912.50;;;29.55;42.10
59443;BME280;45247;47.466;19.004;2023-05-07T06:01:46;99912.56;;;29.41;41.89
59443;BME280;45247;47.466;19.004;2023-05-07T06:04:21;99910.97;;;28.67;43.82
59443;BME280;45247;47.466;19.004;2023-05-07T06:06:49;99914.94;;;28.58;42.41
59443;BME280;45247;47.466;19.004;2023-05-07T06:09:17;99914.25;;;27.27;45.96
59443;BME280;45247;47.466;19.004;2023-05-07T06:11:45;99916.97;;;27.68;45.49
59443;BME280;45247;47.466;19.004;2023-05-07T06:14:13;99921.44;;;27.48;45.81
59443;BME280;45247;47.466;19.004;2023-05-07T06:16:43;99919.19;;;27.93;45.88
59443;BME280;45247;47.466;19.004;2023-05-07T06:19:13;99918.53;;;27.91;45.29
59443;BME280;45247;47.466;19.004;2023-05-07T06:21:45;99923.09;;;27.42;46.21
59443;BME280;45247;47.466;19.004;2023-05-07T06:24:13;99918.66;;;27.35;46.07
59443;BME280;45247;47.466;19.004;2023-05-07T06:26:41;99920.34;;;27.36;45.75
59443;BME280;45247;47.466;19.004;2023-05-07T06:29:09;99921.16;;;27.30;45.04
59443;BME280;45247;47.466;19.004;2023-05-07T06:31:38;99926.00;;;26.85;46.07
59443;BME280;45247;47.466;19.004;2023-05-07T06:34:07;99930.56;;;26.84;45.96
59443;BME280;45247;47.466;19.004;2023-05-07T06:36:35;99923.16;;;26.65;46.41
59443;BME280;45247;47.466;19.004;2023-05-07T06:39:03;99932.81;;;26.53;48.64
59443;BME280;45247;47.466;19.004;2023-05-07T06:41:31;99926.16;;;25.97;46.64
59443;BME280;45247;47.466;19.004;2023-05-07T06:43:59;99932.53;;;26.26;47.46
59443;BME280;45247;47.466;19.004;2023-05-07T06:46:28;99919.94;;;25.82;47.82
59443;BME280;45247;47.466;19.004;2023-05-07T06:48:56;99918.88;;;25.32;48.69
59443;BME280;45247;47.466;19.004;2023-05-07T06:51:26;99932.75;;;24.54;50.27
59443;BME280;45247;47.466;19.004;2023-05-07T06:53:54;99933.78;;;23.98;51.02
59443;BME280;45247;47.466;19.004;2023-05-07T06:56:22;99928.69;;;24.04;52.17
59443;BME280;45247;47.466;19.004;2023-05-07T06:58:51;99929.81;;;24.40;50.83
59443;BME280;45247;47.466;19.004;2023-05-07T07:01:19;99933.56;;;24.31;50.47
59443;BME280;45247;47.466;19.004;2023-05-07T07:03:47;99925.97;;;24.58;50.05
59443;BME280;45247;47.466;19.004;2023-05-07T07:06:15;99933.75;;;24.53;51.27
59443;BME280;45247;47.466;19.004;2023-05-07T07:08:47;99935.91;;;24.11;52.63
59443;BME280;45247;47.466;19.004;2023-05-07T07:11:16;99938.75;;;24.10;52.52
59443;BME280;45247;47.466;19.004;2023-05-07T07:13:44;99944.63;;;24.36;53.11
59443;BME280;45247;47.466;19.004;2023-05-07T07:16:13;99943.13;;;24.42;53.76
59443;BME280;45247;47.466;19.004;2023-05-07T07:18:41;99945.75;;;24.19;53.29
59443;BME280;45247;47.466;19.004;2023-05-07T07:21:09;99954.56;;;24.13;54.97
59443;BME280;45247;47.466;19.004;2023-05-07T07:23:37;99963.34;;;24.07;53.84
59443;BME280;45247;47.466;19.004;2023-05-07T07:26:07;99967.41;;;23.71;56.90
59443;BME280;45247;47.466;19.004;2023-05-07T07:28:43;99972.69;;;24.27;53.25
59443;BME280;45247;47.466;19.004;2023-05-07T07:31:14;99954.97;;;24.33;51.69
59443;BME280;45247;47.466;19.004;2023-05-07T07:33:42;99962.41;;;24.77;53.31
59443;BME280;45247;47.466;19.004;2023-05-07T07:36:10;99968.97;;;25.50;50.15
59443;BME280;45247;47.466;19.004;2023-05-07T07:38:38;99969.34;;;25.76;48.94
59443;BME280;45247;47.466;19.004;2023-05-07T07:41:09;99972.66;;;24.81;51.31
59443;BME280;45247;47.466;19.004;2023-05-07T07:43:37;99968.63;;;25.53;52.68
59443;BME280;45247;47.466;19.004;2023-05-07T07:46:05;99970.72;;;25.72;52.93
59443;BME280;45247;47.466;19.004;2023-05-07T07:48:33;99973.28;;;25.88;53.09
59443;BME280;45247;47.466;19.004;2023-05-07T07:51:01;99971.66;;;25.94;49.57
59443;BME280;45247;47.466;19.004;2023-05-07T07:53:29;99969.69;;;26.03;50.38
59443;BME280;45247;47.466;19.004;2023-05-07T07:55:57;99976.34;;;26.00;50.82
59443;BME280;45247;47.466;19.004;2023-05-07T07:58:27;99969.47;;;25.83;53.93
59443;BME280;45247;47.466;19.004;2023-05-07T08:00:55;99976.47;;;24.72;57.71
59443;BME280;45247;47.466;19.004;2023-05-07T08:03:23;99976.22;;;24.59;61.92
59443;BME280;45247;47.466;19.004;2023-05-07T08:05:51;99979.81;;;24.20;65.19
59443;BME280;45247;47.466;19.004;2023-05-07T08:08:19;99976.72;;;24.00;67.46
59443;BME280;45247;47.466;19.004;2023-05-07T08:10:47;99981.56;;;23.57;72.97
59443;BME280;45247;47.466;19.004;2023-05-07T08:13:17;99985.84;;;23.27;74.80
59443;BME280;45247;47.466;19.004;2023-05-07T08:15:47;99974.84;;;23.53;77.83
59443;BME280;45247;47.466;19.004;2023-05-07T08:18:15;99971.88;;;23.32;76.61
59443;BME280;45247;47.466;19.004;2023-05-07T08:20:43;99973.34;;;23.42;77.15
59443;BME280;45247;47.466;19.004;2023-05-07T08:23:11;99967.00;;;23.35;79.72
59443;BME280;45247;47.466;19.004;2023-05-07T08:25:40;99970.00;;;23.40;82.51
59443;BME280;45247;47.466;19.004;2023-05-07T08:28:09;99963.81;;;23.23;87.61
59443;BME280;45247;47.466;19.004;2023-05-07T08:30:37;99965.19;;;23.19;82.02
59443;BME280;45247;47.466;19.004;2023-05-07T08:33:08;99969.72;;;23.11;77.28
59443;BME280;45247;47.466;19.004;2023-05-07T08:35:37;99965.34;;;23.18;78.86
59443;BME280;45247;47.466;19.004;2023-05-07T08:38:07;99970.38;;;23.21;77.79
59443;BME280;45247;47.466;19.004;2023-05-07T08:40:37;99966.38;;;23.09;82.31
59443;BME280;45247;47.466;19.004;2023-05-07T08:43:07;99963.31;;;23.20;84.66
59443;BME280;45247;47.466;19.004;2023-05-07T08:45:37;99967.66;;;23.29;82.32
59443;BME280;45247;47.466;19.004;2023-05-07T08:48:14;99970.66;;;23.42;82.67
59443;BME280;45247;47.466;19.004;2023-05-07T08:50:43;99972.16;;;23.53;82.57
59443;BME280;45247;47.466;19.004;2023-05-07T08:53:11;99973.19;;;23.52;82.17
59443;BME280;45247;47.466;19.004;2023-05-07T08:55:40;99975.19;;;23.50;83.91
59443;BME280;45247;47.466;19.004;2023-05-07T08:58:08;99972.09;;;22.97;87.22
59443;BME280;45247;47.466;19.004;2023-05-07T09:00:37;99972.59;;;23.01;84.29
59443;BME280;45247;47.466;19.004;2023-05-07T09:03:09;99970.72;;;23.34;82.37
59443;BME280;45247;47.466;19.004;2023-05-07T09:05:39;99967.28;;;23.48;82.38
59443;BME280;45247;47.466;19.004;2023-05-07T09:08:07;99959.19;;;23.65;81.58
59443;BME280;45247;47.466;19.004;2023-05-07T09:10:35;99971.81;;;23.56;77.52
59443;BME280;45247;47.466;19.004;2023-05-07T09:13:04;99966.34;;;24.20;74.10
59443;BME280;45247;47.466;19.004;2023-05-07T09:15:32;99960.03;;;24.28;74.39
59443;BME280;45247;47.466;19.004;2023-05-07T09:18:00;99969.63;;;24.38;72.80
59443;BME280;45247;47.466;19.004;2023-05-07T09:20:32;99966.59;;;24.02;71.56
59443;BME280;45247;47.466;19.004;2023-05-07T09:23:02;99970.78;;;24.05;71.66
59443;BME280;45247;47.466;19.004;2023-05-07T09:25:31;99957.81;;;24.31;74.77
59443;BME280;45247;47.466;19.004;2023-05-07T09:28:00;99966.72;;;24.40;72.37
59443;BME280;45247;47.466;19.004;2023-05-07T09:30:28;99969.19;;;24.49;69.83
59443;BME280;45247;47.466;19.004;2023-05-07T09:32:58;99968.31;;;24.26;66.07
59443;BME280;45247;47.466;19.004;2023-05-07T09:35:27;99964.47;;;24.20;65.75
59443;BME280;45247;47.466;19.004;2023-05-07T09:37:58;99955.19;;;24.23;65.72
59443;BME280;45247;47.466;19.004;2023-05-07T09:40:30;99964.88;;;24.32;64.51
59443;BME280;45247;47.466;19.004;2023-05-07T09:43:09;99957.34;;;24.28;61.96
59443;BME280;45247;47.466;19.004;2023-05-07T09:45:37;99968.59;;;24.39;63.00
59443;BME280;45247;47.466;19.004;2023-05-07T09:48:06;99962.78;;;24.51;62.66
59443;BME280;45247;47.466;19.004;2023-05-07T09:50:36;99961.94;;;24.73;63.48
59443;BME280;45247;47.466;19.004;2023-05-07T09:53:09;99960.63;;;24.69;63.91
59443;BME280;45247;47.466;19.004;2023-05-07T09:55:39;99960.03;;;24.28;66.01
59443;BME280;45247;47.466;19.004;2023-05-07T09:58:09;99966.16;;;23.90;66.59
59443;BME280;45247;47.466;19.004;2023-05-07T10:00:41;99977.13;;;23.81;64.61
59443;BME280;45247;47.466;19.004;2023-05-07T10:03:10;99964.66;;;23.24;66.41
59443;BME280;45247;47.466;19.004;2023-05-07T10:05:40;99975.09;;;22.86;71.11
59443;BME280;45247;47.466;19.004;2023-05-07T10:08:09;99974.03;;;22.22;77.50
59443;BME280;45247;47.466;19.004;2023-05-07T10:10:38;99979.31;;;21.97;80.59
59443;BME280;45247;47.466;19.004;2023-05-07T10:13:08;99976.00;;;21.69;80.25
59443;BME280;45247;47.466;19.004;2023-05-07T10:15:37;99977.81;;;21.61;82.41
59443;BME280;45247;47.466;19.004;2023-05-07T10:18:06;99971.75;;;21.07;86.34
59443;BME280;45247;47.466;19.004;2023-05-07T10:20:36;99977.22;;;20.97;86.15
59443;BME280;45247;47.466;19.004;2023-05-07T10:23:05;99981.38;;;20.91;87.67
59443;BME280;45247;47.466;19.004;2023-05-07T10:25:36;99972.56;;;20.99;85.76
59443;BME280;45247;47.466;19.004;2023-05-07T10:28:06;99967.75;;;21.11;84.00
59443;BME280;45247;47.466;19.004;2023-05-07T10:30:44;99976.31;;;21.32;79.76
59443;BME280;45247;47.466;19.004;2023-05-07T10:33:17;99976.22;;;21.24;82.88
59443;BME280;45247;47.466;19.004;2023-05-07T10:35:47;99977.66;;;21.36;84.93
59443;BME280;45247;47.466;19.004;2023-05-07T10:38:16;99972.47;;;21.69;83.93
59443;BME280;45247;47.466;19.004;2023-05-07T10:40:47;99971.31;;;22.14;81.60
59443;BME280;45247;47.466;19.004;2023-05-07T10:43:15;99978.78;;;22.44;79.41
59443;BME280;45247;47.466;19.004;2023-05-07T10:45:43;99975.28;;;22.85;76.46
59443;BME280;45247;47.466;19.004;2023-05-07T10:48:13;99966.53;;;22.99;77.85
59443;BME280;45247;47.466;19.004;2023-05-07T10:50:44;99971.38;;;23.28;73.74
59443;BME280;45247;47.466;19.004;2023-05-07T10:53:24;99967.97;;;23.42;69.80
59443;BME280;45247;47.466;19.004;2023-05-07T10:56:25;99958.41;;;23.87;68.95
59443;BME280;45247;47.466;19.004;2023-05-07T10:59:30;99967.72;;;24.16;66.96
59443;BME280;45247;47.466;19.004;2023-05-07T11:02:00;99966.88;;;24.15;64.28
59443;BME280;45247;47.466;19.004;2023-05-07T11:04:30;99963.56;;;24.28;61.79
59443;BME280;45247;47.466;19.004;2023-05-07T11:07:23;99962.19;;;24.09;58.23
59443;BME280;45247;47.466;19.004;2023-05-07T11:09:59;99952.66;;;23.98;58.98
59443;BME280;45247;47.466;19.004;2023-05-07T11:12:48;99951.78;;;23.50;61.07
59443;BME280;45247;47.466;19.004;2023-05-07T11:15:35;99957.13;;;23.03;60.35
59443;BME280;45247;47.466;19.004;2023-05-07T11:18:05;99957.63;;;22.98;62.93
59443;BME280;45247;47.466;19.004;2023-05-07T11:20:49;99944.47;;;23.28;62.29
59443;BME280;45247;47.466;19.004;2023-05-07T11:26:44;99955.13;;;23.61;59.38
59443;BME280;45247;47.466;19.004;2023-05-07T11:29:16;99951.34;;;23.86;57.75
59443;BME280;45247;47.466;19.004;2023-05-07T11:31:51;99953.22;;;23.86;56.16
59443;BME280;45247;47.466;19.004;2023-05-07T11:34:20;99952.47;;;24.00;56.90
59443;BME280;45247;47.466;19.004;2023-05-07T11:36:48;99956.19;;;23.99;55.24
59443;BME280;45247;47.466;19.004;2023-05-07T11:39:24;99949.09;;;23.50;54.22
59443;BME280;45247;47.466;19.004;2023-05-07T11:41:53;99943.00;;;23.73;54.99
59443;BME280;45247;47.466;19.004;2023-05-07T11:44:22;99949.53;;;24.10;53.71
59443;BME280;45247;47.466;19.004;2023-05-07T11:46:51;99944.72;;;24.74;52.54
59443;BME280;45247;47.466;19.004;2023-05-07T11:49:19;99944.56;;;25.28;51.18
59443;BME280;45247;47.466;19.004;2023-05-07T11:51:47;99942.03;;;25.56;50.65
59443;BME280;45247;47.466;19.004;2023-05-07T11:54:16;99936.28;;;25.59;50.53
59443;BME280;45247;47.466;19.004;2023-05-07T11:56:44;99934.91;;;25.48;49.17
59443;BME280;45247;47.466;19.004;2023-05-07T11:59:18;99930.41;;;25.56;49.71
59443;BME280;45247;47.466;19.004;2023-05-07T12:01:48;99930.88;;;25.15;49.59
59443;BME280;45247;47.466;19.004;2023-05-07T12:04:19;99932.47;;;24.86;48.66
59443;BME280;45247;47.466;19.004;2023-05-07T12:06:53;99925.97;;;24.95;50.46
59443;BME280;45247;47.466;19.004;2023-05-07T12:09:22;99929.28;;;24.83;50.31
59443;BME280;45247;47.466;19.004;2023-05-07T12:11:51;99922.41;;;24.42;50.90
59443;BME280;45247;47.466;19.004;2023-05-07T12:14:20;99921.28;;;24.29;50.71
59443;BME280;45247;47.466;19.004;2023-05-07T12:16:49;99909.94;;;24.41;50.06
59443;BME280;45247;47.466;19.004;2023-05-07T12:19:18;99914.59;;;24.47;50.34
59443;BME280;45247;47.466;19.004;2023-05-07T12:21:46;99912.94;;;24.46;49.10
59443;BME280;45247;47.466;19.004;2023-05-07T12:24:15;99912.94;;;24.84;47.31
59443;BME280;45247;47.466;19.004;2023-05-07T12:26:43;99911.63;;;24.95;47.51
59443;BME280;45247;47.466;19.004;2023-05-07T12:29:11;99912.06;;;24.69;46.87
59443;BME280;45247;47.466;19.004;2023-05-07T12:31:40;99910.47;;;24.74;45.84
59443;BME280;45247;47.466;19.004;2023-05-07T12:34:12;99913.66;;;25.16;45.70
59443;BME280;45247;47.466;19.004;2023-05-07T12:36:40;99906.16;;;24.88;47.62
59443;BME280;45247;47.466;19.004;2023-05-07T12:39:09;99907.84;;;24.66;50.74
59443;BME280;45247;47.466;19.004;2023-05-07T12:41:52;99904.44;;;24.87;49.45
59443;BME280;45247;47.466;19.004;2023-05-07T12:44:22;99905.91;;;25.13;48.41
59443;BME280;45247;47.466;19.004;2023-05-07T12:46:50;99900.56;;;25.05;48.33
59443;BME280;45247;47.466;19.004;2023-05-07T12:49:20;99906.09;;;25.11;47.72
59443;BME280;45247;47.466;19.004;2023-05-07T12:51:51;99906.75;;;25.28;48.45
59443;BME280;45247;47.466;19.004;2023-05-07T12:54:29;99910.66;;;25.26;48.75
59443;BME280;45247;47.466;19.004;2023-05-07T12:57:01;99912.63;;;25.17;45.66
59443;BME280;45247;47.466;19.004;2023-05-07T12:59:34;99908.38;;;24.47;47.78
59443;BME280;45247;47.466;19.004;2023-05-07T13:02:02;99910.81;;;24.34;48.91